Time;durP1;ratioP1;P1;durP2;ratioP2;P2;SDS_P1;SDS_P2;PMS_P1;PMS_P2;Temp;Humidity;BMP_temperature;BMP_pressure;BME280_temperature;BME280_humidity;BME280_pressure;Samples;Min_cycle;Max_cycle;Signal;HPM_P1;HPM_P2
2021/11/16 00:00:27;;;;;;;34.45;21.38;;;7.30;99.90;;;;;;5071671;28;20294;-69
2021/11/16 00:02:54;;;;;;;37.92;22.40;;;7.30;99.90;;;;;;5072365;28;20259;-69
2021/11/16 00:05:22;;;;;;;32.10;18.75;;;7.30;99.90;;;;;;5064025;28;20206;-69
2021/11/16 00:07:51;;;;;;;33.05;20.48;;;7.10;99.90;;;;;;5063860;28;20680;-68
2021/11/16 00:10:19;;;;;;;37.50;22.15;;;7.20;99.90;;;;;;5064285;28;20205;-69
2021/11/16 00:12:46;;;;;;;35.25;20.38;;;7.20;99.90;;;;;;5068320;28;20198;-68
2021/11/16 00:15:13;;;;;;;32.67;21.25;;;7.20;99.90;;;;;;5073528;28;20271;-69
2021/11/16 00:17:40;;;;;;;34.42;22.30;;;7.20;99.90;;;;;;5066721;28;20229;-69
2021/11/16 00:20:12;;;;;;;40.75;21.10;;;7.20;99.90;;;;;;5061048;28;20209;-69
2021/11/16 00:22:41;;;;;;;35.75;20.23;;;7.30;99.90;;;;;;5069608;28;20327;-69
2021/11/16 00:25:19;;;;;;;31.17;18.02;;;7.30;99.90;;;;;;5064877;28;20202;-69
2021/11/16 00:27:47;;;;;;;33.10;20.85;;;7.40;99.90;;;;;;5066205;28;20287;-69
2021/11/16 00:30:15;;;;;;;33.10;20.88;;;7.40;99.90;;;;;;5065555;28;20652;-69
2021/11/16 00:32:43;;;;;;;36.22;20.08;;;7.20;99.90;;;;;;5064060;28;20201;-69
2021/11/16 00:35:10;;;;;;;34.75;21.42;;;7.20;99.90;;;;;;5070657;28;20288;-70
2021/11/16 00:37:37;;;;;;;29.40;20.80;;;7.10;99.90;;;;;;5060983;28;20613;-69
2021/11/16 00:40:11;;;;;;;35.92;19.80;;;7.10;99.90;;;;;;5066791;28;20269;-69
2021/11/16 00:42:38;;;;;;;34.63;20.30;;;7.00;99.90;;;;;;5066937;28;20515;-69
2021/11/16 00:45:06;;;;;;;34.78;20.52;;;7.00;99.90;;;;;;5068752;28;20208;-69
2021/11/16 00:47:33;;;;;;;33.92;20.50;;;7.00;99.90;;;;;;5067829;28;20298;-69
2021/11/16 00:50:00;;;;;;;33.47;19.27;;;7.00;99.90;;;;;;5064601;28;20210;-69
2021/11/16 00:52:27;;;;;;;32.17;19.52;;;7.10;99.90;;;;;;5068288;28;20213;-68
2021/11/16 00:54:54;;;;;;;33.38;21.15;;;7.20;99.90;;;;;;5066155;28;20199;-70
2021/11/16 00:57:23;;;;;;;32.42;19.60;;;7.20;99.90;;;;;;5061970;28;20714;-68
2021/11/16 00:59:50;;;;;;;29.67;19.67;;;7.10;99.90;;;;;;5067840;28;20209;-68
2021/11/16 01:02:17;;;;;;;27.77;17.83;;;7.20;99.90;;;;;;5063873;28;20209;-69
2021/11/16 01:04:48;;;;;;;31.58;20.75;;;7.20;99.90;;;;;;5070694;28;20738;-68
2021/11/16 01:07:17;;;;;;;33.90;18.33;;;7.20;99.90;;;;;;5064274;28;20308;-69
2021/11/16 01:09:45;;;;;;;30.02;19.20;;;7.20;99.90;;;;;;5065185;28;20205;-69
2021/11/16 01:12:13;;;;;;;26.75;18.08;;;7.20;99.90;;;;;;5061625;28;20236;-69
2021/11/16 01:14:42;;;;;;;30.35;18.17;;;7.10;99.90;;;;;;5067387;28;20230;-68
2021/11/16 01:17:10;;;;;;;34.28;20.15;;;7.10;99.90;;;;;;5063931;28;20225;-68
2021/11/16 01:19:37;;;;;;;31.35;19.90;;;7.10;99.90;;;;;;5070151;28;20199;-68
2021/11/16 01:22:04;;;;;;;30.92;18.55;;;7.10;99.90;;;;;;5071522;28;20207;-69
2021/11/16 01:24:31;;;;;;;34.30;19.45;;;7.10;99.90;;;;;;5071183;28;20663;-68
2021/11/16 01:26:59;;;;;;;35.97;20.08;;;7.10;99.90;;;;;;5068208;28;20828;-68
2021/11/16 01:29:26;;;;;;;28.73;20.10;;;7.10;99.90;;;;;;5065475;28;20222;-69
2021/11/16 01:31:56;;;;;;;29.63;18.08;;;7.10;99.90;;;;;;5069490;28;20724;-68
2021/11/16 01:34:27;;;;;;;30.50;17.05;;;7.20;99.90;;;;;;5069368;28;20197;-69
2021/11/16 01:36:55;;;;;;;28.98;17.95;;;7.20;99.90;;;;;;5066861;28;20230;-69
2021/11/16 01:39:22;;;;;;;27.13;17.80;;;7.20;99.90;;;;;;5064754;28;20569;-68
2021/11/16 01:41:49;;;;;;;24.60;16.63;;;7.20;99.90;;;;;;5065905;28;20295;-69
2021/11/16 01:44:17;;;;;;;30.73;17.63;;;7.20;99.90;;;;;;5083123;28;20215;-70
2021/11/16 01:46:44;;;;;;;33.65;19.90;;;7.20;99.90;;;;;;5077420;28;20223;-69
2021/11/16 01:49:12;;;;;;;29.70;18.55;;;7.20;99.90;;;;;;5074273;28;20642;-68
2021/11/16 01:51:39;;;;;;;26.80;17.33;;;7.20;99.90;;;;;;5075678;28;20205;-69
2021/11/16 01:54:07;;;;;;;27.15;16.45;;;7.20;99.90;;;;;;5072794;28;20285;-69
2021/11/16 01:56:37;;;;;;;30.67;18.30;;;7.10;99.90;;;;;;5072527;28;20218;-69
2021/11/16 01:59:05;;;;;;;29.83;17.30;;;7.10;99.90;;;;;;5081195;28;20206;-69
2021/11/16 02:01:33;;;;;;;26.75;17.75;;;7.20;99.90;;;;;;5079024;28;20203;-69
2021/11/16 02:04:02;;;;;;;28.67;19.58;;;7.10;99.90;;;;;;5079814;28;20206;-69
2021/11/16 02:06:33;;;;;;;29.00;18.83;;;7.10;99.90;;;;;;5075578;28;20218;-69
2021/11/16 02:09:02;;;;;;;28.90;19.10;;;7.10;99.90;;;;;;5062829;28;20275;-69
2021/11/16 02:11:29;;;;;;;26.77;15.70;;;7.10;99.90;;;;;;5071328;28;20278;-69
2021/11/16 02:13:57;;;;;;;25.15;16.85;;;7.10;99.90;;;;;;5071639;28;20205;-69
2021/11/16 02:16:25;;;;;;;27.27;17.40;;;7.10;99.90;;;;;;5073002;28;20312;-69
2021/11/16 02:18:52;;;;;;;29.08;19.00;;;7.10;99.90;;;;;;5063630;28;20201;-69
2021/11/16 02:21:21;;;;;;;32.55;19.48;;;7.10;99.90;;;;;;5072889;28;20676;-68
2021/11/16 02:23:48;;;;;;;32.75;18.13;;;7.00;99.90;;;;;;5070490;28;20224;-69
2021/11/16 02:26:15;;;;;;;26.52;17.92;;;7.00;99.90;;;;;;5066316;28;20224;-69
2021/11/16 02:28:44;;;;;;;32.60;18.10;;;7.00;99.90;;;;;;5070399;28;20303;-69
2021/11/16 02:31:12;;;;;;;23.23;15.15;;;7.00;99.90;;;;;;5081749;28;20208;-68
2021/11/16 02:33:40;;;;;;;28.52;18.83;;;6.90;99.90;;;;;;5070401;28;20209;-69
2021/11/16 02:36:07;;;;;;;29.48;19.17;;;6.90;99.90;;;;;;5070415;28;20225;-68
2021/11/16 02:38:37;;;;;;;36.67;19.52;;;6.90;99.90;;;;;;5072717;28;20297;-69
2021/11/16 02:41:05;;;;;;;28.08;17.50;;;7.00;99.90;;;;;;5070777;28;20227;-68
2021/11/16 02:43:33;;;;;;;31.35;18.67;;;7.00;99.90;;;;;;5074601;28;20233;-68
2021/11/16 02:46:02;;;;;;;30.10;18.00;;;6.90;99.90;;;;;;5071808;28;20304;-68
2021/11/16 02:48:29;;;;;;;29.33;18.50;;;6.90;99.90;;;;;;5073395;28;20215;-68
2021/11/16 02:51:00;;;;;;;34.50;20.13;;;7.00;99.90;;;;;;5076494;28;20283;-68
2021/11/16 02:53:27;;;;;;;28.83;19.73;;;7.00;99.90;;;;;;5067425;28;20208;-68
2021/11/16 02:55:55;;;;;;;34.10;21.25;;;7.00;99.90;;;;;;5071641;28;20620;-69
2021/11/16 02:58:24;;;;;;;30.40;20.65;;;7.00;99.90;;;;;;5073967;28;20230;-68
2021/11/16 03:00:53;;;;;;;29.42;19.35;;;7.00;99.90;;;;;;5063655;28;20203;-68
2021/11/16 03:03:21;;;;;;;29.48;19.05;;;7.10;99.90;;;;;;5067951;28;20220;-69
2021/11/16 03:05:49;;;;;;;27.42;17.77;;;7.00;99.90;;;;;;5062626;28;20238;-70
2021/11/16 03:08:21;;;;;;;32.25;19.48;;;7.10;99.90;;;;;;5062971;28;20593;-69
2021/11/16 03:10:49;;;;;;;34.58;20.23;;;7.10;99.90;;;;;;5073755;28;20206;-69
2021/11/16 03:13:19;;;;;;;32.20;19.85;;;7.00;99.90;;;;;;5074903;28;20198;-69
2021/11/16 03:15:47;;;;;;;31.73;20.77;;;7.00;99.90;;;;;;5068583;28;20237;-69
2021/11/16 03:18:14;;;;;;;38.35;22.50;;;6.90;99.90;;;;;;5066888;28;20601;-69
2021/11/16 03:20:41;;;;;;;38.45;22.45;;;6.90;99.90;;;;;;5069678;28;20208;-69
2021/11/16 03:23:12;;;;;;;30.13;19.75;;;6.90;99.90;;;;;;5065195;28;20195;-69
2021/11/16 03:25:43;;;;;;;41.92;21.75;;;6.90;99.90;;;;;;5068142;28;20232;-69
2021/11/16 03:28:11;;;;;;;33.30;21.27;;;7.00;99.90;;;;;;5061790;28;20235;-68
2021/11/16 03:30:41;;;;;;;32.55;21.42;;;7.00;99.90;;;;;;5063628;28;20205;-68
2021/11/16 03:33:09;;;;;;;32.15;21.08;;;7.00;99.90;;;;;;5072054;28;20646;-68
2021/11/16 03:35:37;;;;;;;33.30;20.83;;;7.00;99.90;;;;;;5063106;28;20252;-69
2021/11/16 03:38:05;;;;;;;33.58;23.30;;;7.00;99.90;;;;;;5064233;28;20264;-68
2021/11/16 03:40:35;;;;;;;34.88;21.00;;;7.00;99.90;;;;;;5069449;28;20256;-68
2021/11/16 03:43:03;;;;;;;31.92;20.38;;;7.00;99.90;;;;;;5070639;28;20539;-69
2021/11/16 03:45:31;;;;;;;33.08;21.77;;;7.10;99.90;;;;;;5066612;28;20292;-69
2021/11/16 03:48:00;;;;;;;38.05;21.85;;;7.10;99.90;;;;;;5069170;28;20278;-69
2021/11/16 03:50:29;;;;;;;36.80;22.83;;;7.00;99.90;;;;;;5062973;28;20210;-68
2021/11/16 03:52:59;;;;;;;28.80;19.25;;;7.00;99.90;;;;;;5063038;28;20596;-68
2021/11/16 03:55:28;;;;;;;33.40;20.73;;;7.10;99.90;;;;;;5070293;28;20286;-68
2021/11/16 03:57:57;;;;;;;32.38;21.17;;;7.00;99.90;;;;;;5069815;28;20644;-69
2021/11/16 04:00:27;;;;;;;31.17;21.30;;;7.00;99.90;;;;;;5081017;28;20203;-68
2021/11/16 04:02:55;;;;;;;30.67;19.02;;;7.10;99.90;;;;;;5070865;28;20226;-68
2021/11/16 04:05:25;;;;;;;42.80;22.85;;;7.10;99.90;;;;;;5063323;28;20234;-68
2021/11/16 04:07:52;;;;;;;34.55;22.10;;;7.10;99.90;;;;;;5061966;28;20547;-69
2021/11/16 04:10:19;;;;;;;36.28;20.23;;;7.20;99.90;;;;;;5065801;28;20296;-69
2021/11/16 04:12:47;;;;;;;32.40;20.42;;;7.30;99.90;;;;;;5076493;28;20239;-68
2021/11/16 04:15:16;;;;;;;32.13;21.10;;;7.20;99.90;;;;;;5070500;28;20651;-68
2021/11/16 04:17:44;;;;;;;35.78;21.45;;;7.20;99.90;;;;;;5072565;28;20202;-68
2021/11/16 04:20:12;;;;;;;30.30;20.05;;;7.20;99.90;;;;;;5067603;28;20311;-68
2021/11/16 04:22:41;;;;;;;31.48;21.67;;;7.20;99.90;;;;;;5064173;28;20247;-69
2021/11/16 04:25:09;;;;;;;39.80;22.58;;;7.30;99.90;;;;;;5064495;28;20215;-68
2021/11/16 04:27:36;;;;;;;32.78;21.85;;;7.20;99.90;;;;;;5070245;28;20216;-68
2021/11/16 04:30:04;;;;;;;32.10;20.45;;;7.20;99.90;;;;;;5071492;28;20213;-68
2021/11/16 04:32:31;;;;;;;47.10;24.92;;;7.20;99.90;;;;;;5066692;28;20244;-68
2021/11/16 04:34:58;;;;;;;35.25;23.10;;;7.20;99.90;;;;;;5068532;28;20711;-68
2021/11/16 04:37:25;;;;;;;39.78;24.10;;;7.10;99.90;;;;;;5063877;28;20245;-68
2021/11/16 04:39:53;;;;;;;39.17;22.85;;;7.10;99.90;;;;;;5066361;28;20671;-70
2021/11/16 04:42:23;;;;;;;40.83;24.05;;;7.00;99.90;;;;;;5073397;28;20742;-68
2021/11/16 04:44:50;;;;;;;40.17;23.48;;;7.00;99.90;;;;;;5076159;28;20232;-69
2021/11/16 04:47:23;;;;;;;42.63;24.83;;;6.90;99.90;;;;;;5071081;28;20229;-69
2021/11/16 04:49:55;;;;;;;36.40;21.52;;;6.80;99.90;;;;;;5064844;28;20235;-69
2021/11/16 04:52:29;;;;;;;37.05;22.58;;;6.80;99.90;;;;;;5065929;28;20266;-69
2021/11/16 05:03:16;;;;;;;41.15;23.05;;;6.70;99.90;;;;;;5070111;28;20665;-68
2021/11/16 05:05:43;;;;;;;35.97;21.35;;;6.80;99.90;;;;;;5067327;28;20687;-69
2021/11/16 05:08:11;;;;;;;34.70;21.92;;;6.80;99.90;;;;;;5062579;28;20207;-69
2021/11/16 05:10:40;;;;;;;36.55;23.48;;;6.80;99.90;;;;;;5067847;28;20214;-69
2021/11/16 05:13:07;;;;;;;35.55;25.73;;;6.80;99.90;;;;;;5070361;28;20295;-68
2021/11/16 05:15:36;;;;;;;39.25;23.73;;;6.80;99.90;;;;;;5065527;28;20312;-68
2021/11/16 05:18:04;;;;;;;39.85;24.45;;;6.90;99.90;;;;;;5066741;28;20289;-68
2021/11/16 05:20:31;;;;;;;35.47;23.42;;;6.80;99.90;;;;;;5068002;28;20228;-68
2021/11/16 05:22:58;;;;;;;43.45;24.20;;;6.80;99.90;;;;;;5064613;28;20215;-68
2021/11/16 05:25:25;;;;;;;42.40;24.00;;;6.90;99.90;;;;;;5066279;28;20191;-69
2021/11/16 05:27:53;;;;;;;40.45;24.83;;;7.00;99.90;;;;;;5062319;28;20274;-69
2021/11/16 05:30:26;;;;;;;40.45;24.67;;;7.00;99.90;;;;;;5068722;28;20220;-68
2021/11/16 05:32:53;;;;;;;35.63;21.35;;;7.00;99.90;;;;;;5075855;28;20211;-69
2021/11/16 05:35:21;;;;;;;48.30;25.90;;;7.10;99.90;;;;;;5066994;28;20226;-69
2021/11/16 05:37:48;;;;;;;39.17;21.80;;;7.00;99.90;;;;;;5070747;28;20210;-69
2021/11/16 05:40:17;;;;;;;42.42;24.50;;;7.10;99.90;;;;;;5081905;28;20641;-69
2021/11/16 05:42:43;;;;;;;36.33;24.35;;;7.10;99.90;;;;;;5055661;28;20217;-69
2021/11/16 05:45:12;;;;;;;37.03;24.85;;;7.10;99.90;;;;;;5069463;28;20256;-69
2021/11/16 05:47:41;;;;;;;43.80;26.05;;;7.20;99.90;;;;;;5067814;28;20203;-69
2021/11/16 05:50:10;;;;;;;36.45;23.42;;;7.30;99.90;;;;;;5070436;28;20324;-69
2021/11/16 05:52:38;;;;;;;38.50;22.52;;;7.30;99.90;;;;;;5072182;28;20220;-68
2021/11/16 05:55:08;;;;;;;36.45;22.95;;;7.30;99.90;;;;;;5074386;28;20202;-70
2021/11/16 05:57:35;;;;;;;53.47;25.17;;;7.20;99.90;;;;;;5070766;28;20202;-69
2021/11/16 06:00:03;;;;;;;42.97;25.08;;;7.30;99.90;;;;;;5072740;28;20203;-68
2021/11/16 06:02:32;;;;;;;41.92;24.88;;;7.20;99.90;;;;;;5069055;28;20205;-68
2021/11/16 06:04:59;;;;;;;46.60;25.02;;;7.20;99.90;;;;;;5075573;28;20212;-69
2021/11/16 06:07:26;;;;;;;49.38;26.77;;;7.30;99.90;;;;;;5069694;28;20261;-69
2021/11/16 06:09:53;;;;;;;39.13;24.70;;;7.30;99.90;;;;;;5065144;28;20209;-69
2021/11/16 06:12:19;;;;;;;38.40;23.92;;;7.40;99.90;;;;;;5070613;28;20246;-69
2021/11/16 06:14:46;;;;;;;42.25;25.17;;;7.40;99.90;;;;;;5074820;28;20270;-69
2021/11/16 06:17:13;;;;;;;35.05;22.88;;;7.30;99.90;;;;;;5073846;28;20270;-70
2021/11/16 06:19:44;;;;;;;41.22;25.00;;;7.40;99.90;;;;;;5064799;28;20229;-71
2021/11/16 06:22:11;;;;;;;52.22;26.40;;;7.30;99.90;;;;;;5067540;28;20217;-70
2021/11/16 06:24:39;;;;;;;43.75;24.63;;;7.40;99.90;;;;;;5073313;28;20203;-71
2021/11/16 06:27:07;;;;;;;33.17;20.80;;;7.30;99.90;;;;;;5074092;28;20230;-69
2021/11/16 06:29:34;;;;;;;38.70;24.77;;;7.20;99.90;;;;;;5071273;28;20241;-70
2021/11/16 06:32:01;;;;;;;39.92;24.55;;;7.30;99.90;;;;;;5074311;28;20205;-69
2021/11/16 06:34:29;;;;;;;41.33;24.85;;;7.40;99.90;;;;;;5067685;28;20210;-70
2021/11/16 06:36:57;;;;;;;43.65;25.25;;;7.40;99.90;;;;;;5077458;28;20234;-71
2021/11/16 06:39:25;;;;;;;43.83;27.13;;;7.30;99.90;;;;;;5066235;28;20201;-70
2021/11/16 06:41:55;;;;;;;44.80;25.77;;;7.30;99.90;;;;;;5070105;28;20209;-70
2021/11/16 06:44:23;;;;;;;42.47;24.73;;;7.40;99.90;;;;;;5069877;28;20216;-70
2021/11/16 06:46:51;;;;;;;36.92;23.20;;;7.30;99.90;;;;;;5071822;28;20252;-71
2021/11/16 06:49:19;;;;;;;48.40;28.23;;;7.30;99.90;;;;;;5065530;28;20221;-70
2021/11/16 06:51:48;;;;;;;41.08;25.23;;;7.40;99.90;;;;;;5070422;28;20660;-69
2021/11/16 06:54:18;;;;;;;41.10;24.73;;;7.30;99.90;;;;;;5069188;28;20252;-69
2021/11/16 06:56:48;;;;;;;42.33;25.95;;;7.30;99.90;;;;;;5069549;28;20282;-69
2021/11/16 06:59:15;;;;;;;38.90;25.40;;;7.30;99.90;;;;;;5078992;28;20209;-69
2021/11/16 07:01:43;;;;;;;46.28;27.25;;;7.30;99.90;;;;;;5067733;28;20627;-68
2021/11/16 07:04:11;;;;;;;43.08;26.80;;;7.40;99.90;;;;;;5076277;28;20216;-69
2021/11/16 07:06:39;;;;;;;43.20;26.77;;;7.20;99.90;;;;;;5078599;28;20632;-68
2021/11/16 07:09:06;;;;;;;43.70;27.30;;;7.30;99.90;;;;;;5064594;28;20220;-70
2021/11/16 07:11:43;;;;;;;41.30;25.98;;;7.30;99.90;;;;;;5072313;28;20204;-69
2021/11/16 07:14:12;;;;;;;52.13;28.65;;;7.30;99.90;;;;;;5058575;28;20216;-68
2021/11/16 07:17:19;;;;;;;49.22;27.67;;;7.10;99.90;;;;;;5096344;27;20584;-69
2021/11/16 07:19:49;;;;;;;45.90;32.30;;;7.10;99.90;;;;;;5104102;28;20560;-70
2021/11/16 07:22:18;;;;;;;44.08;27.48;;;7.30;99.90;;;;;;5095591;28;20613;-70
2021/11/16 07:24:48;;;;;;;49.95;28.00;;;7.30;99.90;;;;;;5101211;28;20207;-69
2021/11/16 07:27:16;;;;;;;46.38;26.73;;;7.20;99.90;;;;;;5095774;28;20305;-70
2021/11/16 07:29:46;;;;;;;47.00;29.80;;;7.30;99.90;;;;;;5090150;28;20284;-70
2021/11/16 07:32:17;;;;;;;48.88;28.95;;;7.20;99.90;;;;;;5097441;28;20193;-69
2021/11/16 07:34:46;;;;;;;44.15;26.92;;;7.20;99.90;;;;;;5104860;28;21144;-69
2021/11/16 07:37:15;;;;;;;45.90;29.10;;;7.20;99.90;;;;;;5092745;28;20230;-70
2021/11/16 07:39:54;;;;;;;48.47;26.77;;;7.20;99.90;;;;;;5091717;28;20311;-69
2021/11/16 07:42:24;;;;;;;42.60;27.25;;;7.30;99.90;;;;;;5089551;28;20193;-69
2021/11/16 07:45:04;;;;;;;48.92;28.63;;;7.30;99.90;;;;;;5094561;28;20671;-70
2021/11/16 07:47:42;;;;;;;47.40;26.58;;;7.30;99.90;;;;;;5098131;28;20263;-70
2021/11/16 07:50:14;;;;;;;47.65;27.95;;;7.20;99.90;;;;;;5107081;28;20234;-70
2021/11/16 07:52:44;;;;;;;47.45;27.52;;;7.10;99.90;;;;;;5096481;28;20202;-70
2021/11/16 07:55:20;;;;;;;52.35;27.90;;;7.10;99.90;;;;;;5099037;28;20236;-69
2021/11/16 07:57:47;;;;;;;45.65;26.98;;;7.10;99.90;;;;;;5106438;28;20205;-70
2021/11/16 08:00:17;;;;;;;44.10;25.42;;;7.10;99.90;;;;;;5098747;28;20209;-69
2021/11/16 08:02:50;;;;;;;46.13;26.40;;;7.10;99.90;;;;;;5097171;28;20236;-68
2021/11/16 08:05:34;;;;;;;43.97;27.40;;;7.10;99.90;;;;;;5098922;28;20234;-70
2021/11/16 08:11:07;;;;;;;45.83;25.42;;;7.10;99.90;;;;;;5094670;28;20213;-69
2021/11/16 08:13:35;;;;;;;46.85;26.98;;;7.00;99.90;;;;;;5098570;28;20654;-70
2021/11/16 08:16:09;;;;;;;48.55;27.45;;;7.00;99.90;;;;;;5093282;28;20305;-69
2021/11/16 08:18:47;;;;;;;41.53;26.13;;;6.90;99.90;;;;;;5099644;28;20737;-69
2021/11/16 08:21:17;;;;;;;67.63;31.17;;;7.00;99.90;;;;;;5099268;28;20652;-69
2021/11/16 08:23:55;;;;;;;45.45;28.15;;;6.90;99.90;;;;;;5104293;28;20196;-69
2021/11/16 08:26:24;;;;;;;47.15;27.63;;;7.00;99.90;;;;;;5095522;28;20548;-70
2021/11/16 08:28:54;;;;;;;44.28;24.98;;;7.00;99.90;;;;;;5089099;28;20276;-69
2021/11/16 08:31:22;;;;;;;48.25;29.42;;;7.00;99.90;;;;;;5087189;28;20274;-70
2021/11/16 08:33:53;;;;;;;45.33;27.55;;;7.10;99.90;;;;;;5094526;28;20217;-69
2021/11/16 08:36:27;;;;;;;46.65;27.60;;;7.10;99.90;;;;;;5085868;28;20313;-69
2021/11/16 08:38:56;;;;;;;55.17;30.90;;;7.10;99.90;;;;;;5083685;28;20571;-69
2021/11/16 08:41:30;;;;;;;51.08;27.40;;;7.10;99.90;;;;;;5090549;28;20248;-69
2021/11/16 08:44:15;;;;;;;42.58;23.73;;;7.00;99.90;;;;;;5094521;28;20267;-69
2021/11/16 08:46:44;;;;;;;53.05;28.85;;;7.10;99.90;;;;;;5089094;28;20637;-70
2021/11/16 08:49:24;;;;;;;43.70;25.90;;;7.00;99.90;;;;;;5092501;28;20542;-69
2021/11/16 08:51:52;;;;;;;45.92;27.50;;;7.10;99.90;;;;;;5082554;28;20680;-71
2021/11/16 08:54:35;;;;;;;46.72;27.75;;;7.10;99.90;;;;;;5080031;28;20699;-69
2021/11/16 08:57:03;;;;;;;45.53;27.10;;;7.20;99.90;;;;;;5086726;28;20278;-69
2021/11/16 08:59:34;;;;;;;48.60;27.08;;;7.20;99.90;;;;;;5089068;28;20302;-70
2021/11/16 09:02:04;;;;;;;49.50;27.33;;;7.10;99.90;;;;;;5086181;28;20278;-69
2021/11/16 09:04:36;;;;;;;46.17;25.60;;;7.10;99.90;;;;;;5083346;28;20283;-69
2021/11/16 09:07:16;;;;;;;57.78;29.55;;;7.00;99.90;;;;;;5085360;28;20909;-70
2021/11/16 09:09:52;;;;;;;52.38;27.92;;;7.00;99.90;;;;;;5093960;28;20193;-68
2021/11/16 09:12:19;;;;;;;53.60;30.05;;;7.10;99.90;;;;;;5084739;28;20215;-68
2021/11/16 09:14:55;;;;;;;49.88;28.15;;;7.10;99.90;;;;;;5085829;28;20249;-69
2021/11/16 09:17:22;;;;;;;55.95;31.25;;;7.10;99.90;;;;;;5079656;28;20227;-68
2021/11/16 09:19:50;;;;;;;54.03;29.83;;;7.20;99.90;;;;;;5094065;28;20200;-69
2021/11/16 09:22:19;;;;;;;52.42;28.27;;;7.20;99.90;;;;;;5083043;28;20201;-69
2021/11/16 09:24:49;;;;;;;58.38;30.27;;;7.10;99.90;;;;;;5085040;28;20230;-69
2021/11/16 09:27:38;;;;;;;53.22;28.20;;;7.10;99.90;;;;;;5089564;28;20301;-69
2021/11/16 09:30:06;;;;;;;63.50;33.15;;;7.00;99.90;;;;;;5091734;28;21062;-69
2021/11/16 09:32:33;;;;;;;49.53;28.02;;;7.00;99.90;;;;;;5086853;28;20574;-69
2021/11/16 09:35:02;;;;;;;46.80;26.67;;;7.00;99.90;;;;;;5078049;28;20237;-68
2021/11/16 09:37:30;;;;;;;50.22;27.65;;;7.00;99.90;;;;;;5092649;28;20237;-69
2021/11/16 09:40:00;;;;;;;45.75;26.25;;;6.90;99.90;;;;;;5087532;28;20197;-70
2021/11/16 09:42:30;;;;;;;52.97;30.88;;;7.00;99.90;;;;;;5093348;28;20207;-69
2021/11/16 09:45:03;;;;;;;47.70;25.83;;;7.10;99.90;;;;;;5089365;28;20228;-68
2021/11/16 09:47:33;;;;;;;53.83;29.02;;;6.90;99.90;;;;;;5087138;28;20226;-70
2021/11/16 09:50:04;;;;;;;47.75;29.67;;;6.70;99.90;;;;;;5079208;28;20208;-69
2021/11/16 09:52:34;;;;;;;59.05;30.13;;;6.70;99.90;;;;;;5090543;28;20199;-69
2021/11/16 09:55:07;;;;;;;59.20;30.20;;;6.80;99.90;;;;;;5082550;28;20205;-69
2021/11/16 09:57:38;;;;;;;56.92;28.42;;;6.80;99.90;;;;;;5085595;28;20611;-68
2021/11/16 10:00:10;;;;;;;54.83;27.45;;;6.80;99.90;;;;;;5088274;28;20207;-70
2021/11/16 10:02:41;;;;;;;57.45;30.55;;;6.70;99.90;;;;;;5085018;28;20196;-71
2021/11/16 10:05:16;;;;;;;53.65;31.48;;;6.80;99.90;;;;;;5083693;28;20289;-71
2021/11/16 10:07:43;;;;;;;50.10;28.90;;;6.80;99.90;;;;;;5083079;28;20572;-71
2021/11/16 10:10:10;;;;;;;51.95;27.98;;;6.90;99.90;;;;;;5081676;28;20639;-70
2021/11/16 10:12:39;;;;;;;56.90;29.00;;;6.90;99.90;;;;;;5074926;28;20616;-69
2021/11/16 10:15:07;;;;;;;59.88;29.58;;;7.00;99.90;;;;;;5090259;28;20252;-70
2021/11/16 10:17:34;;;;;;;60.83;30.60;;;7.00;99.90;;;;;;5090266;28;20204;-70
2021/11/16 10:20:03;;;;;;;50.40;28.80;;;7.00;99.90;;;;;;5091184;28;20209;-69
2021/11/16 10:22:32;;;;;;;56.95;29.98;;;6.90;99.90;;;;;;5080838;28;20201;-69
2021/11/16 10:25:15;;;;;;;59.05;30.80;;;6.90;99.90;;;;;;5081125;28;20207;-70
2021/11/16 10:27:44;;;;;;;48.97;28.15;;;7.00;99.90;;;;;;5084173;28;20206;-69
2021/11/16 10:30:16;;;;;;;49.90;28.02;;;7.00;99.90;;;;;;5073615;28;20613;-70
2021/11/16 10:32:47;;;;;;;62.15;30.45;;;7.00;99.90;;;;;;5082386;28;20660;-69
2021/11/16 10:35:16;;;;;;;50.63;27.20;;;7.00;99.90;;;;;;5081739;28;20195;-69
2021/11/16 10:37:47;;;;;;;54.80;30.10;;;6.90;99.90;;;;;;5082968;28;20283;-70
2021/11/16 10:40:15;;;;;;;68.38;31.15;;;6.90;99.90;;;;;;5080790;28;20197;-70
2021/11/16 10:42:45;;;;;;;56.15;30.27;;;6.90;99.90;;;;;;5089357;28;20190;-69
2021/11/16 10:45:15;;;;;;;57.38;28.65;;;6.90;99.90;;;;;;5088090;28;20293;-70
2021/11/16 10:47:45;;;;;;;57.42;30.25;;;7.00;99.90;;;;;;5080095;28;20208;-71
2021/11/16 10:50:14;;;;;;;48.67;27.98;;;7.10;99.90;;;;;;5077636;28;20213;-70
2021/11/16 10:52:42;;;;;;;51.35;27.90;;;7.10;99.90;;;;;;5086060;28;20199;-70
2021/11/16 10:55:11;;;;;;;57.08;28.13;;;7.10;99.90;;;;;;5083734;28;20201;-70
2021/11/16 10:58:03;;;;;;;55.83;30.35;;;7.10;99.90;;;;;;5084330;28;20221;-70
2021/11/16 11:00:37;;;;;;;55.53;29.00;;;7.10;99.90;;;;;;5084906;28;20196;-70
2021/11/16 11:03:26;;;;;;;47.95;28.33;;;7.10;99.90;;;;;;5083435;28;20283;-69
2021/11/16 11:05:56;;;;;;;64.20;30.40;;;7.10;99.90;;;;;;5082991;28;20227;-70
2021/11/16 11:08:32;;;;;;;64.82;30.05;;;7.00;99.90;;;;;;5081123;28;20603;-70
2021/11/16 11:11:01;;;;;;;53.50;29.17;;;7.00;99.90;;;;;;5076804;28;20617;-71
2021/11/16 11:13:29;;;;;;;62.22;35.17;;;6.90;99.90;;;;;;5079301;28;20196;-70
2021/11/16 11:15:58;;;;;;;47.53;28.67;;;6.90;99.90;;;;;;5081955;28;20229;-70
2021/11/16 11:18:39;;;;;;;60.55;31.55;;;6.90;99.90;;;;;;5082660;28;20216;-70
2021/11/16 11:21:10;;;;;;;65.65;32.80;;;6.90;99.90;;;;;;5089432;28;20200;-71
2021/11/16 11:23:46;;;;;;;56.78;28.60;;;6.90;99.90;;;;;;5077817;28;20210;-70
2021/11/16 11:26:32;;;;;;;57.88;30.40;;;6.90;99.90;;;;;;5087903;28;20618;-70
2021/11/16 11:29:19;;;;;;;54.83;29.40;;;7.00;99.90;;;;;;5090482;28;20231;-71
2021/11/16 11:31:49;;;;;;;57.53;30.85;;;7.00;99.90;;;;;;5106262;28;20654;-71
2021/11/16 11:34:17;;;;;;;62.95;32.30;;;7.00;99.90;;;;;;5088027;28;20601;-70
2021/11/16 11:36:44;;;;;;;65.82;30.70;;;6.90;99.90;;;;;;5079211;28;20248;-71
2021/11/16 11:39:23;;;;;;;61.03;29.85;;;6.90;99.90;;;;;;5084886;28;20260;-71
2021/11/16 11:41:57;;;;;;;46.30;28.08;;;6.90;99.90;;;;;;5087427;28;20582;-71
2021/11/16 11:44:27;;;;;;;59.70;29.17;;;7.00;99.90;;;;;;5080078;28;20330;-69
2021/11/16 11:46:57;;;;;;;49.67;28.20;;;6.90;99.90;;;;;;5087088;28;20705;-70
2021/11/16 11:49:26;;;;;;;52.85;29.08;;;7.00;99.90;;;;;;5078230;28;20205;-71
2021/11/16 11:51:55;;;;;;;56.80;25.90;;;7.10;99.90;;;;;;5077553;28;20259;-71
2021/11/16 11:54:22;;;;;;;54.05;27.35;;;7.10;99.90;;;;;;5080936;28;20571;-72
2021/11/16 11:56:50;;;;;;;46.95;24.52;;;7.00;99.90;;;;;;5089799;28;20234;-71
2021/11/16 11:59:19;;;;;;;52.50;27.95;;;7.10;99.90;;;;;;5080759;28;20217;-70
2021/11/16 12:01:48;;;;;;;44.83;24.95;;;7.10;99.90;;;;;;5076985;28;20208;-70
2021/11/16 12:04:18;;;;;;;52.33;26.90;;;7.20;99.90;;;;;;5091886;28;20547;-70
2021/11/16 12:06:46;;;;;;;56.70;27.80;;;7.10;99.90;;;;;;5086572;28;20215;-70
2021/11/16 12:09:15;;;;;;;63.30;30.45;;;7.10;99.90;;;;;;5084754;28;20215;-70
2021/11/16 12:11:42;;;;;;;60.10;29.33;;;7.10;99.90;;;;;;5090137;28;20322;-71
2021/11/16 12:14:19;;;;;;;54.92;26.33;;;7.00;99.90;;;;;;5086298;28;20261;-71
2021/11/16 12:16:55;;;;;;;58.47;25.58;;;7.10;99.90;;;;;;5086061;28;20236;-71
2021/11/16 12:19:22;;;;;;;56.08;27.25;;;7.00;99.90;;;;;;5092323;28;20649;-71
2021/11/16 12:21:51;;;;;;;51.20;25.90;;;7.00;99.90;;;;;;5079653;28;20250;-71
2021/11/16 12:24:30;;;;;;;49.83;27.80;;;7.00;99.90;;;;;;5081440;28;20198;-70
2021/11/16 12:27:01;;;;;;;51.20;26.27;;;7.00;99.90;;;;;;5081772;28;20534;-70
2021/11/16 12:29:30;;;;;;;60.35;28.63;;;7.10;99.90;;;;;;5076592;28;20234;-71
2021/11/16 12:32:24;;;;;;;52.30;28.30;;;7.10;99.90;;;;;;5080194;28;20255;-70
2021/11/16 12:34:54;;;;;;;55.63;28.67;;;7.00;99.90;;;;;;5091157;28;20247;-71
2021/11/16 12:37:43;;;;;;;57.50;28.23;;;7.00;99.90;;;;;;5079392;28;20245;-71
2021/11/16 12:40:14;;;;;;;54.75;29.13;;;6.90;99.90;;;;;;5083994;28;20284;-70
2021/11/16 12:43:12;;;;;;;52.90;27.50;;;6.90;99.90;;;;;;5088655;28;20213;-70
2021/11/16 12:45:41;;;;;;;52.92;28.00;;;6.80;99.90;;;;;;5082981;28;20286;-72
2021/11/16 12:48:12;;;;;;;56.20;27.50;;;6.90;99.90;;;;;;5083570;28;20205;-71
2021/11/16 12:50:40;;;;;;;49.40;25.50;;;7.00;99.90;;;;;;5088445;28;20684;-70
2021/11/16 12:53:07;;;;;;;58.65;27.02;;;6.90;99.90;;;;;;5091908;28;20655;-70
2021/11/16 12:55:36;;;;;;;50.78;26.35;;;6.90;99.90;;;;;;5081569;28;20221;-71
2021/11/16 12:58:25;;;;;;;59.20;31.75;;;6.90;99.90;;;;;;5089931;28;20625;-70
2021/11/16 13:00:53;;;;;;;57.92;26.45;;;6.80;99.90;;;;;;5085792;28;20294;-71